createdAt,value
2023-03-14T00:00:41.955Z,13.54
2023-03-14T00:01:41.958Z,14.07
2023-03-14T00:02:42.040Z,13.99
2023-03-14T00:07:41.887Z,13.38
2023-03-14T00:08:41.841Z,13.35
2023-03-14T00:09:41.796Z,13.14
2023-03-14T00:10:41.802Z,13.23
2023-03-14T00:11:41.775Z,13.66
2023-03-14T00:12:41.742Z,13.25
2023-03-14T00:13:41.733Z,13.18
2023-03-14T00:14:41.721Z,13.22
2023-03-14T00:15:41.768Z,13.22
2023-03-14T00:16:41.706Z,13.04
2023-03-14T03:28:39.727Z,0.56
2023-03-14T03:29:39.750Z,0.54
2023-03-14T03:30:39.788Z,0.52
2023-03-14T03:31:39.768Z,0.53
2023-03-14T03:32:39.812Z,0.52
2023-03-14T03:33:39.823Z,0.51
2023-03-14T03:34:39.818Z,0.50
2023-03-14T03:35:39.840Z,0.51
2023-03-14T03:36:39.862Z,0.51
2023-03-14T03:37:39.871Z,0.51
2023-03-14T03:38:39.894Z,0.51
2023-03-14T03:39:39.921Z,0.51
2023-03-14T03:40:39.922Z,0.51
2023-03-14T03:41:39.954Z,0.51
2023-03-14T03:42:39.929Z,0.50
2023-03-14T03:43:39.951Z,0.52
2023-03-14T03:44:39.958Z,0.50
2023-03-14T03:45:39.980Z,0.51
2023-03-14T03:46:39.990Z,0.52
2023-03-14T03:47:39.989Z,0.51
2023-03-14T03:48:40.024Z,0.50
2023-03-14T03:49:40.022Z,0.50
2023-03-14T03:50:40.040Z,0.51
2023-03-14T03:51:40.039Z,0.51
2023-03-14T03:52:40.058Z,0.51
2023-03-14T03:53:40.099Z,0.52
2023-03-14T03:54:40.067Z,0.51
2023-03-14T03:55:40.091Z,0.51
2023-03-14T03:56:40.140Z,0.51
2023-03-14T03:57:40.124Z,0.51
2023-03-14T03:58:40.136Z,0.51
2023-03-14T03:59:40.142Z,0.50
2023-03-14T04:00:40.171Z,0.50
2023-03-14T04:01:40.176Z,0.49
2023-03-14T04:02:40.251Z,0.50
2023-03-14T04:03:40.349Z,0.50
2023-03-14T04:04:40.232Z,0.50
2023-03-14T04:05:40.226Z,0.50
2023-03-14T04:06:40.294Z,0.49
2023-03-14T04:07:40.259Z,0.50
2023-03-14T04:08:40.269Z,0.50
2023-03-14T04:09:40.299Z,0.51
2023-03-14T04:10:40.315Z,0.51
2023-03-14T04:11:40.315Z,0.52
2023-03-14T04:12:40.344Z,0.51
2023-03-14T04:13:40.363Z,0.52
2023-03-14T04:14:40.370Z,0.53
2023-03-14T04:15:40.414Z,0.54
2023-03-14T04:16:40.395Z,0.55
2023-03-14T04:17:40.407Z,0.55
2023-03-14T04:18:40.423Z,0.56
2023-03-14T04:19:40.447Z,0.57
2023-03-14T04:20:40.446Z,0.57
2023-03-14T04:21:40.481Z,0.57
2023-03-14T04:22:41.393Z,0.58
2023-03-14T04:23:40.491Z,0.57
2023-03-14T04:24:40.511Z,0.58
2023-03-14T04:25:40.513Z,0.59
2023-03-14T04:26:40.528Z,0.60
2023-03-14T04:27:40.538Z,0.59
2023-03-14T04:28:40.549Z,0.59
2023-03-14T04:29:40.576Z,0.60
2023-03-14T04:30:40.582Z,0.60
2023-03-14T04:31:40.633Z,0.61
2023-03-14T04:32:40.621Z,0.60
2023-03-14T04:33:40.621Z,0.63
2023-03-14T04:34:40.643Z,0.63
2023-03-14T04:35:40.667Z,0.63
2023-03-14T04:36:40.676Z,0.63
2023-03-14T04:37:40.682Z,0.63
2023-03-14T04:38:40.718Z,0.64
2023-03-14T04:39:40.792Z,0.66
2023-03-14T04:40:40.767Z,0.66
2023-03-14T04:41:40.776Z,0.66
2023-03-14T04:42:40.790Z,0.66
2023-03-14T04:43:40.797Z,0.66
2023-03-14T04:44:40.832Z,0.66
2023-03-14T04:45:40.833Z,0.66
2023-03-14T04:46:40.878Z,0.66
2023-03-14T04:47:40.884Z,0.66
2023-03-14T04:48:40.901Z,0.66
2023-03-14T04:49:40.931Z,0.65
2023-03-14T04:50:40.949Z,0.65
2023-03-14T04:51:40.971Z,0.64
2023-03-14T04:52:40.994Z,0.64
2023-03-14T04:53:41.000Z,0.63
2023-03-14T04:54:41.019Z,0.64
2023-03-14T04:55:41.045Z,0.64
2023-03-14T04:56:41.049Z,0.64
2023-03-14T04:57:41.076Z,0.64
2023-03-14T04:58:41.088Z,0.62
2023-03-14T04:59:41.100Z,0.63
2023-03-14T05:00:41.120Z,0.63
2023-03-14T05:01:41.188Z,0.63
2023-03-14T05:02:41.174Z,0.65
2023-03-14T05:03:41.188Z,0.67
2023-03-14T05:04:41.229Z,0.67
2023-03-14T05:05:41.208Z,0.67
2023-03-14T05:06:41.228Z,0.68
2023-03-14T05:07:41.254Z,0.68
2023-03-14T05:08:41.293Z,0.69
2023-03-14T05:09:41.305Z,0.69
2023-03-14T05:10:41.310Z,0.69
2023-03-14T05:11:41.325Z,0.70
2023-03-14T05:12:41.346Z,0.68
2023-03-14T05:13:41.360Z,0.70
2023-03-14T05:14:41.423Z,0.70
2023-03-14T05:15:41.416Z,0.70
2023-03-14T05:16:41.420Z,0.71
2023-03-14T05:17:41.451Z,0.70
2023-03-14T05:18:41.453Z,0.70
2023-03-14T05:19:41.509Z,0.70
2023-03-14T05:20:41.501Z,0.68
2023-03-14T05:21:41.525Z,0.68
2023-03-14T05:22:41.544Z,0.69
2023-03-14T05:23:41.548Z,0.71
2023-03-14T05:24:41.582Z,0.74
2023-03-14T05:25:41.617Z,0.74
2023-03-14T05:26:41.612Z,0.73
2023-03-14T05:27:41.640Z,0.72
2023-03-14T05:28:41.653Z,0.72
2023-03-14T05:29:41.666Z,0.71
2023-03-14T05:30:41.700Z,0.72
2023-03-14T05:31:41.760Z,0.71
2023-03-14T05:32:41.768Z,0.72
2023-03-14T05:33:41.749Z,0.71
2023-03-14T05:34:41.759Z,0.71
2023-03-14T05:35:41.790Z,0.69
2023-03-14T05:36:41.784Z,0.69
2023-03-14T05:37:41.800Z,0.70
2023-03-14T05:38:41.840Z,0.71
2023-03-14T05:39:41.831Z,0.74
2023-03-14T05:40:41.856Z,0.81
2023-03-14T05:41:41.876Z,0.82
2023-03-14T05:42:41.884Z,0.86
2023-03-14T05:43:42.012Z,0.88
2023-03-14T05:44:41.928Z,0.92
2023-03-14T05:45:42.020Z,0.96
2023-03-14T05:46:41.964Z,1.04
2023-03-14T05:47:42.005Z,1.08
2023-03-14T05:48:42.020Z,1.16
2023-03-14T05:49:42.034Z,1.24
2023-03-14T05:50:42.064Z,1.35
2023-03-14T05:51:42.074Z,1.35
2023-03-14T05:52:42.094Z,1.37
2023-03-14T05:53:42.114Z,1.45
2023-03-14T05:54:42.151Z,1.60
2023-03-14T05:55:42.167Z,1.90
2023-03-14T05:56:42.173Z,1.99
2023-03-14T05:57:42.190Z,2.07
2023-03-14T05:58:42.225Z,2.11
2023-03-14T05:59:42.234Z,2.15
2023-03-14T06:00:42.274Z,2.22
2023-03-14T06:01:42.358Z,2.31
2023-03-14T06:02:42.315Z,2.32
2023-03-14T06:03:42.381Z,2.33
2023-03-14T06:04:42.371Z,2.35
2023-03-14T06:05:42.436Z,2.36
2023-03-14T06:06:42.408Z,2.37
2023-03-14T06:07:42.446Z,2.30
2023-03-14T06:08:42.470Z,2.32
2023-03-14T06:09:42.505Z,2.32
2023-03-14T06:10:42.522Z,2.28
2023-03-14T06:11:42.547Z,2.32
2023-03-14T06:12:42.549Z,2.22
2023-03-14T06:13:42.576Z,2.19
2023-03-14T06:14:42.601Z,2.19
2023-03-14T06:15:42.633Z,2.31
2023-03-14T06:16:42.670Z,2.26
2023-03-14T06:17:42.665Z,2.32
2023-03-14T06:18:42.692Z,2.37
2023-03-14T06:19:42.724Z,2.53
2023-03-14T06:20:42.736Z,2.66
2023-03-14T06:21:42.773Z,2.81
2023-03-14T06:22:42.803Z,2.95
2023-03-14T06:23:42.818Z,3.02
2023-03-14T06:24:42.852Z,3.14
2023-03-14T06:25:42.861Z,3.24
2023-03-14T06:26:42.882Z,3.34
2023-03-14T06:27:42.894Z,3.48
2023-03-14T06:28:42.940Z,3.63
2023-03-14T06:29:42.945Z,3.61
2023-03-14T06:30:42.994Z,3.57
2023-03-14T06:31:43.013Z,3.57
2023-03-14T06:32:43.037Z,3.57
2023-03-14T07:08:42.853Z,65.17
2023-03-14T07:09:42.848Z,65.54
2023-03-14T07:10:42.856Z,70.22
2023-03-14T07:11:42.826Z,71.14
2023-03-14T07:13:42.864Z,71.63
2023-03-14T07:15:42.840Z,76.10
2023-03-14T07:16:42.803Z,77.20
2023-03-14T07:17:42.801Z,77.30
2023-03-14T07:18:42.811Z,78.91
2023-03-14T07:20:42.760Z,76.40
2023-03-14T07:21:42.755Z,75.88
2023-03-14T07:22:42.775Z,74.44
2023-03-14T07:23:42.744Z,74.50
2023-03-14T07:24:42.742Z,74.26
2023-03-14T07:25:42.710Z,72.22
2023-03-14T07:26:42.732Z,70.90
2023-03-14T07:27:42.710Z,71.98
2023-03-14T07:29:42.673Z,70.36
2023-03-14T07:30:42.741Z,68.38
2023-03-14T07:31:42.664Z,69.28
2023-03-14T07:32:42.718Z,68.06
2023-03-14T07:33:42.642Z,67.38
2023-03-14T07:34:42.611Z,67.07
2023-03-14T07:35:42.706Z,66.80
2023-03-14T07:36:42.587Z,67.01
2023-03-14T07:37:42.608Z,66.80
2023-03-14T07:38:42.568Z,65.52
2023-03-14T07:39:42.587Z,64.83
2023-03-14T07:40:42.541Z,63.57
2023-03-14T07:41:42.522Z,63.47
2023-03-14T07:42:42.550Z,63.03
2023-03-14T07:43:42.492Z,52.49
2023-03-14T07:44:42.519Z,34.61
2023-03-14T07:45:43.380Z,24.89
2023-03-14T07:46:42.510Z,19.15
2023-03-14T07:48:42.503Z,17.23
2023-03-14T07:50:42.500Z,18.73
2023-03-14T07:51:42.515Z,18.55
2023-03-14T07:52:42.529Z,18.59
2023-03-14T07:53:42.485Z,18.70
2023-03-14T07:54:42.496Z,18.99
2023-03-14T07:55:42.499Z,19.92
2023-03-14T07:56:42.479Z,21.49
2023-03-14T07:57:42.492Z,22.54
2023-03-14T07:58:42.464Z,22.85
2023-03-14T07:59:42.458Z,24.01
2023-03-14T08:00:42.433Z,24.49
2023-03-14T08:01:42.410Z,24.77
2023-03-14T08:02:42.409Z,25.65
2023-03-14T08:03:42.415Z,25.00
2023-03-14T08:04:42.328Z,26.19
2023-03-14T08:05:42.316Z,25.78
2023-03-14T08:06:42.308Z,25.92
2023-03-14T08:07:42.258Z,26.84
2023-03-14T08:08:42.250Z,28.21
2023-03-14T08:09:42.240Z,29.06
2023-03-14T08:10:42.197Z,29.89
2023-03-14T08:11:42.217Z,29.38
2023-03-14T08:12:42.190Z,30.28
2023-03-14T08:13:42.181Z,30.35
2023-03-14T08:14:42.144Z,30.98
2023-03-14T08:15:42.158Z,31.76
2023-03-14T08:16:42.135Z,32.49
2023-03-14T08:17:42.103Z,32.56
2023-03-14T08:18:42.082Z,32.76
2023-03-14T08:19:42.048Z,32.72
2023-03-14T08:20:42.034Z,33.57
2023-03-14T08:21:42.039Z,34.29
2023-03-14T08:22:41.997Z,35.12
2023-03-14T08:23:41.992Z,35.71
2023-03-14T08:24:41.950Z,35.63
2023-03-14T08:25:42.034Z,35.52
2023-03-14T08:26:41.921Z,35.67
2023-03-14T08:27:41.888Z,35.73
2023-03-14T08:28:41.879Z,35.80
2023-03-14T08:29:41.858Z,36.08
2023-03-14T08:30:43.697Z,35.27
2023-03-14T08:31:41.886Z,35.71
2023-03-14T08:32:41.868Z,35.09
2023-03-14T08:33:41.804Z,34.49
2023-03-14T08:34:41.776Z,34.77
2023-03-14T08:35:41.768Z,35.02
2023-03-14T08:36:41.839Z,32.42
2023-03-14T08:37:41.738Z,31.58
2023-03-14T08:38:41.737Z,30.90
2023-03-14T08:39:41.692Z,31.32
2023-03-14T10:15:41.717Z,3.47
2023-03-14T10:21:41.732Z,3.26
2023-03-14T10:22:41.714Z,3.13
2023-03-14T10:23:41.703Z,3.13
2023-03-14T10:24:41.699Z,3.28
2023-03-14T10:25:41.722Z,3.41
2023-03-14T10:26:41.723Z,3.47
2023-03-14T10:27:41.705Z,3.45
2023-03-14T10:28:41.708Z,3.33
2023-03-14T10:29:41.710Z,3.21
2023-03-14T10:30:41.752Z,3.24
2023-03-14T10:31:41.716Z,3.35
2023-03-14T10:32:41.774Z,3.33
2023-03-14T10:33:41.739Z,3.19
2023-03-14T10:34:41.752Z,3.29
2023-03-14T10:35:41.803Z,3.19
2023-03-14T10:36:41.727Z,3.22
2023-03-14T10:37:41.730Z,3.30
2023-03-14T10:38:41.736Z,3.16
2023-03-14T10:39:41.799Z,3.31
2023-03-14T10:40:41.749Z,3.33
2023-03-14T10:41:41.759Z,3.47
2023-03-14T10:42:41.857Z,3.48
2023-03-14T10:43:41.770Z,3.11
2023-03-14T10:44:41.748Z,2.85
2023-03-14T10:45:41.789Z,2.61
2023-03-14T10:46:41.851Z,2.23
2023-03-14T10:47:41.784Z,2.04
2023-03-14T10:48:41.765Z,1.91
2023-03-14T10:49:41.794Z,2.04
2023-03-14T10:50:41.812Z,2.06
2023-03-14T10:51:41.824Z,2.18
2023-03-14T10:52:57.720Z,2.47
2023-03-14T10:53:42.818Z,2.48
2023-03-14T10:54:41.886Z,2.47
2023-03-14T10:55:41.872Z,1.83
2023-03-14T10:56:41.858Z,1.35
2023-03-14T10:57:41.881Z,1.22
2023-03-14T10:58:41.875Z,0.98
2023-03-14T10:59:41.901Z,0.87
2023-03-14T11:00:41.916Z,0.78
2023-03-14T11:01:41.977Z,0.74
2023-03-14T11:02:41.947Z,0.67
2023-03-14T11:03:42.081Z,0.57
2023-03-14T11:04:42.016Z,0.53
2023-03-14T11:05:42.032Z,0.53
2023-03-14T11:06:42.033Z,0.50
2023-03-14T11:07:42.078Z,0.50
2023-03-14T11:08:42.085Z,0.53
2023-03-14T11:09:42.128Z,0.57
2023-03-14T11:10:42.164Z,0.58
2023-03-14T11:11:42.190Z,0.59
2023-03-14T11:12:42.204Z,0.55
2023-03-14T11:13:42.243Z,0.54
2023-03-14T11:14:42.288Z,0.57
2023-03-14T11:15:42.305Z,0.55
2023-03-14T11:16:42.291Z,0.57
2023-03-14T11:17:42.365Z,0.53
2023-03-14T11:18:42.342Z,0.55
2023-03-14T11:19:42.526Z,0.55
2023-03-14T11:20:42.368Z,0.55
2023-03-14T11:21:42.396Z,0.55
2023-03-14T11:22:42.419Z,0.55
2023-03-14T11:23:42.440Z,0.55
2023-03-14T11:24:42.485Z,0.55
2023-03-14T11:25:42.514Z,0.54
2023-03-14T11:26:42.542Z,0.54
2023-03-14T11:27:42.542Z,0.56
2023-03-14T11:28:42.556Z,0.56
2023-03-14T11:29:42.593Z,0.55
2023-03-14T11:30:42.622Z,0.55
2023-03-14T11:31:42.630Z,0.55
2023-03-14T11:32:42.663Z,0.55
2023-03-14T11:33:42.709Z,0.55
2023-03-14T11:34:42.717Z,0.54
2023-03-14T11:35:42.774Z,0.52
2023-03-14T11:36:42.798Z,0.49
2023-03-14T11:37:42.821Z,0.53
2023-03-14T11:38:42.840Z,0.55
2023-03-14T11:39:42.902Z,0.57
2023-03-14T11:40:42.895Z,0.63
2023-03-14T11:41:42.956Z,0.72
2023-03-14T11:42:42.919Z,0.73
2023-03-14T11:43:42.946Z,0.74
2023-03-14T11:44:42.970Z,0.79
2023-03-14T11:45:43.337Z,0.80
2023-03-14T11:46:43.051Z,0.85
2023-03-14T11:47:44.625Z,0.88
2023-03-14T11:48:43.183Z,0.89
2023-03-14T11:49:43.075Z,0.94
2023-03-14T11:50:43.147Z,0.97
2023-03-14T11:51:43.122Z,1.05
2023-03-14T11:52:44.412Z,1.08
2023-03-14T11:53:43.148Z,1.13
2023-03-14T11:54:43.168Z,1.16
2023-03-14T11:55:43.267Z,1.14
2023-03-14T11:56:43.252Z,1.17
2023-03-14T11:57:43.268Z,1.16
2023-03-14T11:58:44.476Z,1.13
2023-03-14T11:59:43.304Z,1.09
2023-03-14T12:00:43.336Z,1.17
2023-03-14T12:01:43.398Z,1.21
2023-03-14T12:02:43.397Z,1.16
2023-03-14T12:03:43.450Z,1.05
2023-03-14T12:04:44.490Z,1.08
2023-03-14T12:05:43.458Z,1.08
2023-03-14T12:06:43.517Z,1.08
2023-03-14T12:07:43.567Z,1.16
2023-03-14T12:08:43.555Z,1.50
2023-03-14T12:09:43.554Z,2.03
2023-03-14T12:10:43.559Z,2.68
2023-03-14T12:11:43.592Z,3.14
2023-03-14T12:12:43.574Z,3.44
2023-03-14T12:13:43.602Z,3.03
2023-03-14T12:14:43.604Z,2.73
2023-03-14T12:15:43.625Z,2.74
2023-03-14T12:16:43.706Z,3.07
2023-03-14T12:17:43.641Z,2.99
2023-03-14T12:18:43.670Z,2.81
2023-03-14T12:19:43.728Z,3.07
2023-03-14T12:20:43.692Z,3.79
2023-03-14T12:21:43.721Z,4.02
2023-03-14T12:22:43.709Z,4.64
2023-03-14T12:23:43.758Z,4.30
2023-03-14T12:24:43.752Z,4.56
2023-03-14T12:25:43.810Z,4.84
2023-03-14T12:26:43.771Z,5.00
2023-03-14T12:27:43.752Z,4.99
2023-03-14T12:28:43.761Z,4.65
2023-03-14T12:29:43.769Z,4.33
2023-03-14T12:30:43.790Z,4.91
2023-03-14T12:31:43.870Z,4.47
2023-03-14T12:32:43.824Z,4.48
2023-03-14T12:33:43.803Z,4.68
2023-03-14T12:34:44.120Z,4.82
2023-03-14T12:35:44.001Z,4.36
2023-03-14T12:36:43.812Z,4.36
2023-03-14T12:37:43.837Z,4.51
2023-03-14T12:38:43.827Z,4.41
2023-03-14T12:39:43.831Z,4.44
2023-03-14T12:40:43.853Z,4.35
2023-03-14T12:41:43.841Z,4.57
2023-03-14T12:42:45.683Z,4.37
2023-03-14T12:43:43.835Z,4.36
2023-03-14T12:44:43.845Z,4.22
2023-03-14T12:45:45.253Z,4.07
2023-03-14T12:46:43.855Z,4.06
2023-03-14T12:47:43.861Z,3.88
2023-03-14T12:48:43.851Z,3.74
2023-03-14T12:49:43.855Z,3.83
2023-03-14T12:50:43.878Z,3.85
2023-03-14T12:51:43.873Z,3.87
2023-03-14T12:52:45.815Z,3.88
2023-03-14T12:53:43.884Z,3.89
2023-03-14T12:54:43.893Z,3.97
2023-03-14T12:55:43.926Z,3.94
2023-03-14T12:56:43.888Z,3.86
2023-03-14T12:57:43.897Z,3.99
2023-03-14T12:58:45.332Z,3.86
2023-03-14T12:59:43.906Z,4.15
2023-03-14T13:00:43.894Z,4.15
2023-03-14T13:01:43.902Z,3.55
2023-03-14T13:02:43.929Z,3.77
2023-03-14T13:03:43.971Z,3.92
2023-03-14T13:04:44.028Z,3.92
2023-03-14T13:05:43.914Z,4.45
2023-03-14T13:06:43.919Z,5.36
2023-03-14T13:07:43.923Z,5.90
2023-03-14T13:08:44.306Z,6.38
2023-03-14T13:09:43.924Z,6.57
2023-03-14T13:10:44.215Z,7.02
2023-03-14T13:11:43.916Z,7.26
2023-03-14T13:12:43.904Z,7.43
2023-03-14T13:13:44.815Z,7.62
2023-03-14T13:14:43.903Z,7.64
2023-03-14T13:15:43.917Z,7.90
2023-03-14T13:16:43.949Z,8.17
2023-03-14T13:17:43.911Z,8.43
2023-03-14T13:18:43.910Z,8.43
2023-03-14T13:19:43.904Z,8.54
2023-03-14T13:20:43.918Z,8.76
2023-03-14T13:21:43.916Z,9.58
2023-03-14T13:22:43.903Z,11.21
2023-03-14T13:23:43.921Z,12.25
2023-03-14T13:24:43.903Z,14.45
2023-03-14T13:25:43.889Z,16.18
2023-03-14T13:26:43.986Z,16.91
2023-03-14T13:27:43.896Z,16.89
2023-03-14T13:28:43.892Z,17.48
2023-03-14T13:29:43.903Z,18.31
2023-03-14T13:30:43.937Z,18.56
2023-03-14T13:31:43.917Z,19.04
2023-03-14T13:32:43.902Z,18.28
2023-03-14T13:33:43.888Z,18.83
2023-03-14T13:34:43.943Z,19.02
2023-03-14T13:35:43.917Z,19.06
2023-03-14T13:36:43.891Z,19.38
2023-03-14T13:37:43.877Z,19.35
2023-03-14T13:38:43.883Z,19.01
2023-03-14T13:39:43.989Z,19.35
2023-03-14T14:40:43.659Z,19.09
2023-03-14T14:45:43.658Z,18.67
2023-03-14T16:00:43.495Z,16.10
2023-03-14T16:01:43.465Z,16.24
2023-03-14T16:02:43.453Z,16.02
2023-03-14T16:03:43.457Z,15.80
2023-03-14T16:04:43.518Z,15.63
2023-03-14T16:05:43.479Z,15.80
2023-03-14T16:06:43.475Z,15.92
2023-03-14T16:07:43.470Z,15.77
2023-03-14T16:08:43.627Z,15.77
2023-03-14T16:09:43.475Z,15.82
2023-03-14T16:10:43.472Z,15.16
2023-03-14T16:11:43.484Z,15.71
2023-03-14T16:12:43.480Z,15.66
2023-03-14T16:13:43.479Z,15.45
2023-03-14T16:14:43.498Z,15.37
2023-03-14T16:15:43.511Z,15.19
2023-03-14T16:16:43.604Z,15.30
2023-03-14T16:17:43.481Z,15.01
2023-03-14T16:18:43.506Z,15.28
2023-03-14T16:19:43.495Z,15.44
2023-03-14T16:20:48.057Z,15.33
2023-03-14T16:21:44.532Z,15.35
2023-03-14T16:22:43.511Z,15.36
2023-03-14T16:23:43.497Z,15.37
2023-03-14T16:24:43.523Z,15.25
2023-03-14T16:25:43.519Z,14.99
2023-03-14T16:26:43.515Z,14.94
2023-03-14T16:27:43.505Z,14.90
2023-03-14T16:28:43.499Z,14.89
2023-03-14T16:29:43.515Z,14.90
2023-03-14T16:30:43.529Z,14.79
2023-03-14T16:31:43.649Z,14.63
2023-03-14T16:32:43.587Z,14.56
2023-03-14T16:33:43.528Z,14.24
2023-03-14T16:34:43.524Z,14.89
2023-03-14T16:35:43.598Z,14.62
2023-03-14T16:36:43.538Z,14.17
2023-03-14T16:37:43.528Z,14.62
2023-03-14T16:38:43.538Z,13.77
2023-03-14T16:40:07.186Z,14.34
2023-03-14T16:40:44.549Z,14.35
2023-03-14T16:41:43.540Z,14.38
2023-03-14T16:43:14.412Z,14.38
2023-03-14T16:43:44.549Z,14.37
2023-03-14T16:44:43.555Z,14.44
2023-03-14T16:45:43.587Z,14.51
2023-03-14T16:46:43.732Z,14.33
2023-03-14T16:47:43.588Z,14.00
2023-03-14T16:48:43.578Z,14.20
2023-03-14T16:49:43.563Z,13.95
2023-03-14T16:50:43.565Z,14.03
2023-03-14T16:51:43.573Z,14.08
2023-03-14T16:52:43.580Z,14.08
2023-03-14T16:53:43.578Z,13.84
2023-03-14T16:54:43.579Z,14.11
2023-03-14T16:55:43.606Z,13.63
2023-03-14T16:56:43.602Z,13.73
2023-03-14T16:57:43.601Z,13.60
2023-03-14T16:58:43.585Z,13.60
2023-03-14T16:59:43.598Z,13.70
2023-03-14T17:00:43.589Z,13.54
2023-03-14T17:01:43.634Z,13.60
2023-03-14T17:02:43.608Z,13.61
2023-03-14T17:03:43.689Z,13.51
2023-03-14T17:04:43.594Z,13.36
2023-03-14T17:05:43.593Z,13.42
2023-03-14T17:06:43.631Z,13.36
2023-03-14T17:07:43.605Z,13.23
2023-03-14T17:08:43.607Z,13.19
2023-03-14T17:09:43.625Z,13.09
2023-03-14T17:10:43.658Z,13.11
2023-03-14T17:11:43.605Z,13.16
2023-03-14T17:12:43.622Z,12.98
2023-03-14T17:13:43.623Z,13.03
2023-03-14T17:14:43.615Z,12.82
2023-03-14T17:15:43.633Z,12.84
2023-03-14T17:16:43.636Z,12.79
2023-03-14T17:17:43.641Z,13.32
2023-03-14T17:18:43.630Z,12.73
2023-03-14T17:19:43.636Z,12.68
2023-03-14T17:20:43.638Z,12.58
2023-03-14T17:21:43.649Z,12.60
2023-03-14T17:22:43.637Z,12.63
2023-03-14T17:23:43.652Z,12.69
2023-03-14T17:24:43.641Z,12.85
2023-03-14T17:25:43.644Z,12.73
2023-03-14T17:26:43.630Z,12.57
2023-03-14T17:27:46.039Z,12.89
2023-03-14T17:28:43.744Z,12.69
2023-03-14T17:29:43.761Z,12.86
2023-03-14T17:30:43.738Z,12.34
2023-03-14T17:31:43.790Z,12.57
2023-03-14T17:32:43.821Z,12.44
2023-03-14T17:33:43.744Z,12.57
2023-03-14T17:34:43.747Z,12.13
2023-03-14T17:35:43.768Z,12.48
2023-03-14T17:36:43.742Z,12.50
2023-03-14T17:37:43.749Z,12.51
2023-03-14T17:38:43.764Z,12.49
2023-03-14T17:39:43.749Z,12.30
2023-03-14T17:40:43.757Z,12.17
2023-03-14T17:41:43.747Z,12.24
2023-03-14T17:42:43.753Z,12.13
2023-03-14T17:43:43.741Z,12.14
2023-03-14T17:44:43.733Z,12.21
2023-03-14T17:45:43.750Z,12.05
2023-03-14T17:46:43.761Z,11.73
2023-03-14T17:47:43.780Z,11.85
2023-03-14T17:48:43.746Z,11.82
2023-03-14T17:49:43.730Z,11.50
2023-03-14T17:50:43.734Z,11.60
2023-03-14T17:51:43.721Z,11.78
2023-03-14T17:52:43.750Z,11.91
2023-03-14T17:53:43.730Z,11.46
2023-03-14T17:54:43.718Z,11.73
2023-03-14T17:55:43.728Z,11.68
2023-03-14T17:56:43.732Z,11.53
2023-03-14T17:57:43.737Z,11.56
2023-03-14T17:58:43.708Z,11.40
2023-03-14T17:59:43.714Z,11.15
2023-03-14T18:00:43.711Z,11.22
2023-03-14T18:01:43.853Z,11.15
2023-03-14T18:02:43.944Z,11.27
2023-03-14T18:03:43.725Z,11.10
2023-03-14T18:04:43.865Z,11.04
2023-03-14T18:05:43.713Z,11.09
2023-03-14T18:06:43.713Z,10.91
2023-03-14T18:07:43.732Z,10.95
2023-03-14T18:08:43.760Z,11.01
2023-03-14T18:09:43.756Z,10.97
2023-03-14T18:10:43.713Z,10.59
2023-03-14T18:11:43.723Z,10.70
2023-03-14T18:12:43.730Z,10.89
2023-03-14T18:13:43.720Z,10.34
2023-03-14T18:14:43.723Z,10.66
2023-03-14T18:15:43.785Z,10.66
2023-03-14T18:16:43.717Z,10.59
2023-03-14T18:17:43.728Z,10.65
2023-03-14T18:19:43.725Z,10.84
2023-03-14T18:20:43.706Z,10.47
2023-03-14T18:21:43.712Z,10.36
2023-03-14T18:22:43.721Z,10.19
2023-03-14T18:23:43.747Z,10.28
2023-03-14T18:24:43.704Z,10.06
2023-03-14T18:25:43.708Z,10.41
2023-03-14T18:26:43.723Z,10.12
2023-03-14T18:27:43.722Z,10.06
2023-03-14T18:28:43.712Z,10.02
2023-03-14T18:29:43.697Z,10.20
2023-03-14T18:30:43.697Z,10.15
2023-03-14T18:31:43.749Z,9.88
2023-03-14T18:32:43.749Z,9.90
2023-03-14T18:33:43.719Z,9.98
2023-03-14T18:34:43.695Z,9.91
2023-03-14T18:35:43.750Z,9.93
2023-03-14T18:36:43.694Z,9.99
2023-03-14T18:37:45.982Z,9.97
2023-03-14T18:38:43.832Z,10.01
2023-03-14T18:39:43.729Z,10.05
2023-03-14T18:40:43.702Z,10.11
2023-03-14T18:41:43.716Z,9.82
2023-03-14T18:42:43.705Z,9.90
2023-03-14T18:43:43.727Z,9.92
2023-03-14T18:44:43.725Z,9.71
2023-03-14T18:45:43.727Z,9.80
2023-03-14T18:46:43.829Z,9.58
2023-03-14T18:47:43.736Z,9.64
2023-03-14T18:48:43.746Z,9.40
2023-03-14T18:49:43.731Z,9.89
2023-03-14T18:50:43.723Z,9.49
2023-03-14T18:51:43.748Z,9.36
2023-03-14T18:52:43.739Z,9.39
2023-03-14T18:53:43.736Z,9.41
2023-03-14T18:54:43.747Z,9.20
2023-03-14T18:55:43.734Z,9.12
2023-03-14T18:56:43.737Z,9.27
2023-03-14T18:57:43.751Z,9.34
2023-03-14T18:58:43.738Z,9.17
2023-03-14T18:59:43.759Z,9.00
2023-03-14T19:00:43.778Z,8.88
2023-03-14T19:01:43.799Z,8.89
2023-03-14T19:02:43.738Z,8.97
2023-03-14T19:03:43.754Z,8.95
2023-03-14T19:04:43.745Z,9.06
2023-03-14T19:05:43.750Z,9.13
2023-03-14T19:06:43.725Z,9.19
2023-03-14T19:07:43.730Z,8.91
2023-03-14T19:08:43.742Z,8.78
2023-03-14T19:09:43.752Z,8.78
2023-03-14T19:10:43.727Z,8.77
2023-03-14T19:11:43.863Z,8.96
2023-03-14T19:12:43.857Z,8.78
2023-03-14T19:13:43.774Z,8.65
2023-03-14T19:14:43.728Z,9.13
2023-03-14T19:15:43.751Z,8.69
2023-03-14T19:16:43.790Z,8.54
2023-03-14T19:17:43.734Z,8.65
2023-03-14T19:18:43.728Z,8.63
2023-03-14T19:19:43.734Z,8.52
2023-03-14T19:20:43.721Z,8.49
2023-03-14T19:21:43.748Z,8.31
2023-03-14T19:22:43.840Z,8.44
2023-03-14T19:23:43.740Z,8.51
2023-03-14T19:24:43.736Z,8.44
2023-03-14T19:25:43.801Z,8.34
2023-03-14T19:26:43.738Z,8.51
2023-03-14T19:27:43.745Z,8.30
2023-03-14T19:28:43.759Z,8.30
2023-03-14T19:29:43.772Z,8.42
2023-03-14T19:30:43.741Z,8.30
2023-03-14T19:31:43.738Z,8.22
2023-03-14T19:32:43.867Z,8.21
2023-03-14T19:33:43.744Z,7.85
2023-03-14T19:34:43.732Z,8.06
2023-03-14T19:35:43.812Z,7.95
2023-03-14T19:36:43.733Z,8.14
2023-03-14T19:37:43.738Z,8.00
2023-03-14T19:38:43.729Z,8.04
2023-03-14T19:39:43.729Z,8.10
2023-03-14T19:40:43.736Z,7.83
2023-03-14T19:41:43.732Z,8.07
2023-03-14T19:42:43.717Z,7.93
2023-03-14T19:43:43.721Z,7.74
2023-03-14T19:44:43.729Z,7.70
2023-03-14T19:45:43.781Z,7.54
2023-03-14T19:46:43.739Z,7.77
2023-03-14T19:47:43.752Z,7.56
2023-03-14T19:48:43.744Z,7.81
2023-03-14T19:49:43.747Z,7.86
2023-03-14T19:50:43.734Z,7.78
2023-03-14T19:51:43.740Z,7.50
2023-03-14T19:52:43.747Z,7.72
2023-03-14T19:53:43.742Z,7.45
2023-03-14T19:54:43.752Z,7.37
2023-03-14T19:55:43.731Z,7.57
2023-03-14T19:56:43.731Z,7.47
2023-03-14T19:57:43.744Z,7.44
2023-03-14T19:58:43.734Z,7.42
2023-03-14T19:59:43.742Z,7.32
2023-03-14T20:00:43.719Z,7.49
2023-03-14T20:01:43.779Z,7.40
2023-03-14T20:02:43.898Z,7.19
2023-03-14T20:03:43.718Z,7.30
2023-03-14T20:04:43.724Z,7.25
2023-03-14T20:05:43.713Z,7.17
2023-03-14T20:06:43.716Z,7.10
2023-03-14T20:07:43.714Z,7.32
2023-03-14T20:08:43.755Z,6.99
2023-03-14T20:09:43.727Z,7.15
2023-03-14T20:10:43.746Z,7.14
2023-03-14T20:11:43.729Z,7.24
2023-03-14T20:12:43.805Z,6.96
2023-03-14T20:13:43.737Z,7.13
2023-03-14T20:14:43.724Z,7.05
2023-03-14T20:15:43.733Z,6.93
2023-03-14T20:16:43.781Z,7.03
2023-03-14T20:17:43.761Z,7.01
2023-03-14T20:18:43.733Z,7.07
2023-03-14T20:19:43.728Z,6.89
2023-03-14T20:20:43.753Z,6.93
2023-03-14T20:21:43.743Z,6.90
2023-03-14T20:22:43.741Z,6.81
2023-03-14T20:23:43.746Z,6.95
2023-03-14T20:24:43.750Z,6.91
2023-03-14T20:25:43.752Z,6.87
2023-03-14T20:26:43.750Z,6.80
2023-03-14T20:27:43.746Z,6.76
2023-03-14T20:28:43.748Z,6.70
2023-03-14T20:29:43.771Z,6.83
2023-03-14T20:30:43.786Z,6.84
2023-03-14T20:31:43.775Z,6.63
2023-03-14T20:32:43.790Z,6.65
2023-03-14T20:33:43.780Z,6.55
2023-03-14T20:34:43.756Z,6.48
2023-03-14T20:35:43.799Z,6.47
2023-03-14T20:36:43.763Z,6.53
2023-03-14T20:37:43.769Z,6.38
2023-03-14T20:38:43.782Z,6.58
2023-03-14T20:39:43.840Z,6.41
2023-03-14T20:40:43.778Z,6.46
2023-03-14T20:41:43.766Z,6.46
2023-03-14T20:42:43.775Z,6.44
2023-03-14T20:43:43.777Z,6.40
2023-03-14T20:44:43.774Z,6.45
2023-03-14T20:45:43.798Z,6.26
2023-03-14T20:46:43.875Z,6.43
2023-03-14T20:47:43.768Z,6.26
2023-03-14T20:48:43.777Z,6.28
2023-03-14T20:49:43.783Z,6.26
2023-03-14T20:50:43.792Z,6.10
2023-03-14T20:51:43.790Z,6.24
2023-03-14T20:52:43.885Z,6.19
2023-03-14T20:53:43.803Z,6.06
2023-03-14T20:54:43.782Z,6.22
2023-03-14T20:55:43.789Z,6.10
2023-03-14T20:56:43.779Z,6.16
2023-03-14T20:57:43.784Z,6.14
2023-03-14T20:58:43.787Z,6.17
2023-03-14T20:59:43.822Z,5.97
2023-03-14T21:00:43.787Z,6.02
2023-03-14T21:01:43.793Z,5.97
2023-03-14T21:02:43.780Z,6.03
2023-03-14T21:03:43.767Z,5.99
2023-03-14T21:04:43.878Z,5.87